Bredon, United Kingdom
Current Conditions -  °F | °C
As of 5:50 PM on Sunday 23 Nov 2014 (Local Time) from EGBJ Reporting Station
Few Clouds Few Clouds  
Wind Chill: 43°   Ceiling: Unl
Heat Index: 43°   Visibility: 6mi
Dew Point: 41°   Wind: 0mph
Humidity: 93%   Direction: NA
Pressure: 30.12"   Gusts: NA
Location:  52.03°N, 2.11°W
Report Text: EGBJ 231750Z 00000KT 9999 FEW010 06/05 Q1020
Loading
Personal Weather Stations






























Interactive Weather Map New forecast layout! Learn more

10-Day Weather Forecast

Advertisements
Track Severe Weather on mobile